Tuesday, October 17, 2017, 1:52 PM CDT
Back to Local

KIXD, New Century Aircenter

Location: Olathe, KS, United States Lat: 38.817
Local Time: 1:52 PM CDT (18:52 GMT) Lon: -94.883
Time Zone: US/Central Elev: 1085 ft

Show me the last for .
Show Decoded

2017-10-17 12:53 METAR KIXD 171753Z 18012G21KT 10SM CLR 20/07 A3018 RMK AO2 SLP216 T02000072
                 10200 20067 58018 =
2017-10-17 11:53 METAR KIXD 171653Z 19019G23KT 10SM CLR 19/06 A3021 RMK AO2 SLP226 T01890061 =
2017-10-17 10:53 METAR KIXD 171553Z 19011G22KT 10SM CLR 17/07 A3022 RMK AO2 SLP232 T01670072 =
2017-10-17 09:53 METAR KIXD 171453Z 18009KT 10SM CLR 13/07 A3023 RMK AO2 SLP237 T01330067 51002 =
2017-10-17 08:53 METAR KIXD 171353Z 17010KT 10SM CLR 10/06 A3023 RMK AO2 SLP238 T01000056 =
2017-10-17 07:53 METAR KIXD 171253Z 16006KT 10SM CLR 07/04 A3023 RMK AO2 SLP238 T00670044 =
2017-10-17 06:53 METAR KIXD 171153Z 15006KT 10SM CLR 08/05 A3023 RMK AO2 SLP234 T00830050 10094
                 20072 53002 =
2017-10-17 05:53 METAR KIXD 171053Z 17006KT 10SM CLR 07/05 A3022 RMK AO2 SLP230 T00720050 =
2017-10-17 04:53 METAR KIXD 170953Z AUTO 17006KT 10SM CLR 07/04 A3022 RMK AO2 SLP230 T00720044 =
2017-10-17 03:53 METAR KIXD 170853Z AUTO 16008KT 10SM CLR 08/05 A3022 RMK AO2 SLP231 T00830050
                 58008 =
2017-10-17 02:53 METAR KIXD 170753Z AUTO 16007KT 10SM CLR 09/05 A3024 RMK AO2 SLP236 T00890050 =
2017-10-17 01:53 METAR KIXD 170653Z AUTO 18004KT 10SM CLR 09/06 A3024 RMK AO2 SLP237 T00890056 =
2017-10-17 00:53 METAR KIXD 170553Z AUTO 18005KT 10SM CLR 09/05 A3025 RMK AO2 SLP240 T00890050
                 10133 20078 402000033 58007 =
2017-10-16 23:53 METAR KIXD 170453Z AUTO 18005KT 10SM CLR 08/05 A3025 RMK AO2 SLP242 T00830050 =
2017-10-16 22:53 METAR KIXD 170353Z AUTO 17006KT 10SM CLR 09/05 A3026 RMK AO2 SLP248 T00890050 =
2017-10-16 21:53 METAR KIXD 170253Z 17006KT 10SM CLR 09/06 A3027 RMK AO2 SLP250 T00940056 53004 =
2017-10-16 20:53 METAR KIXD 170153Z 18004KT 10SM CLR 11/06 A3026 RMK AO2 SLP249 T01060056 =
2017-10-16 19:53 METAR KIXD 170053Z 17006KT 10SM CLR 11/06 A3026 RMK AO2 SLP248 T01110056 =
2017-10-16 18:53 METAR KIXD 162353Z 17004KT 10SM CLR 13/06 A3025 RMK AO2 SLP245 T01330056 10200
                 20128 56012 =
2017-10-16 17:53 METAR KIXD 162253Z 19009KT 10SM CLR 18/04 A3026 RMK AO2 SLP245 T01780044 =
2017-10-16 16:53 METAR KIXD 162153Z 20010KT 10SM CLR 19/04 A3027 RMK AO2 SLP249 T01940044 =
2017-10-16 15:53 METAR KIXD 162053Z 21010KT 10SM CLR 20/06 A3029 RMK AO2 SLP256 T02000056 56030 =
2017-10-16 14:53 METAR KIXD 161953Z 22010G15KT 10SM CLR 20/05 A3031 RMK AO2 SLP262 T02000050 =
2017-10-16 13:53 METAR KIXD 161853Z 22010KT 10SM CLR 19/05 A3034 RMK AO2 SLP274 T01940050 =

Support USWX by starting your Amazon purchase here.